createdAt,value
2023-01-25T00:00:56.169Z,99774.97
2023-01-25T00:04:58.259Z,99774.50
2023-01-25T00:09:00.546Z,99765.38
2023-01-25T00:13:02.550Z,99768.81
2023-01-25T00:17:04.822Z,99760.25
2023-01-25T00:21:32.093Z,99756.06
2023-01-25T00:25:34.106Z,99754.72
2023-01-25T00:29:36.172Z,99754.56
2023-01-25T00:33:38.147Z,99755.44
2023-01-25T00:37:44.352Z,99750.19
2023-01-25T00:41:46.460Z,99744.41
2023-01-25T00:45:48.454Z,99740.53
2023-01-25T00:49:50.503Z,99731.06
2023-01-25T00:53:53.392Z,99742.38
2023-01-25T00:57:55.490Z,99738.53
2023-01-25T01:01:57.550Z,99741.88
2023-01-25T01:06:11.050Z,99731.66
2023-01-25T01:10:13.090Z,99744.53
2023-01-25T01:14:15.213Z,99747.88
2023-01-25T01:18:17.279Z,99736.72
2023-01-25T01:22:20.435Z,99744.16
2023-01-25T01:26:22.890Z,99740.34
2023-01-25T01:30:24.925Z,99747.75
2023-01-25T01:34:27.199Z,99745.28
2023-01-25T01:38:30.022Z,99742.47
2023-01-25T01:42:32.016Z,99743.13
2023-01-25T01:46:39.524Z,99734.47
2023-01-25T01:50:50.945Z,99734.06
2023-01-25T01:54:58.731Z,99732.97
2023-01-25T01:59:03.164Z,99726.75
2023-01-25T02:03:05.300Z,99723.91
2023-01-25T02:07:17.323Z,99728.13
2023-01-25T02:11:22.853Z,99725.53
2023-01-25T02:15:28.961Z,99712.97
2023-01-25T02:19:54.947Z,99722.06
2023-01-25T02:24:08.144Z,99720.34
2023-01-25T02:28:24.187Z,99727.38
2023-01-25T02:32:26.437Z,99720.66
2023-01-25T02:36:33.715Z,99714.72
2023-01-25T02:40:44.509Z,99716.97
2023-01-25T02:44:47.607Z,99715.00
2023-01-25T02:48:49.627Z,99709.56
2023-01-25T02:52:51.618Z,99709.19
2023-01-25T02:56:54.388Z,99705.00
2023-01-25T03:00:58.996Z,99704.25
2023-01-25T03:05:01.851Z,99699.91
2023-01-25T03:09:06.316Z,99694.84
2023-01-25T03:13:08.596Z,99687.88
2023-01-25T03:17:11.194Z,99688.63
2023-01-25T03:21:19.048Z,99689.34
2023-01-25T03:25:21.358Z,99683.31
2023-01-25T03:29:33.436Z,99680.47
2023-01-25T03:33:36.025Z,99679.47
2023-01-25T03:37:38.193Z,99671.69
2023-01-25T03:41:40.742Z,99658.78
2023-01-25T03:45:46.185Z,99667.56
2023-01-25T03:49:48.624Z,99668.22
2023-01-25T03:53:53.980Z,99658.44
2023-01-25T03:57:56.491Z,99666.88
2023-01-25T04:01:58.858Z,99658.16
2023-01-25T04:06:01.477Z,99652.00
2023-01-25T04:10:06.341Z,99663.38
2023-01-25T04:14:11.062Z,99656.78
2023-01-25T04:18:20.446Z,99655.31
2023-01-25T04:22:22.595Z,99651.97
2023-01-25T04:26:27.699Z,99639.56
2023-01-25T04:30:33.802Z,99649.56
2023-01-25T04:34:37.124Z,99639.28
2023-01-25T04:38:39.739Z,99639.88
2023-01-25T04:42:41.747Z,99626.28
2023-01-25T04:46:43.883Z,99626.38
2023-01-25T04:50:46.709Z,99619.72
2023-01-25T04:54:49.344Z,99614.94
2023-01-25T04:58:52.300Z,99613.78
2023-01-25T05:02:55.061Z,99607.84
2023-01-25T05:06:57.526Z,99609.66
2023-01-25T05:11:00.803Z,99599.22
2023-01-25T05:15:31.842Z,99592.31
2023-01-25T05:19:34.209Z,99591.59
2023-01-25T05:23:39.495Z,99600.31
2023-01-25T05:27:41.660Z,99589.72
2023-01-25T05:32:11.700Z,99590.72
2023-01-25T05:36:14.203Z,99593.19
2023-01-25T05:40:17.868Z,99589.84
2023-01-25T05:44:20.455Z,99592.63
2023-01-25T05:48:25.958Z,99590.06
2023-01-25T05:52:29.485Z,99579.69
2023-01-25T05:56:32.354Z,99583.66
2023-01-25T06:00:34.539Z,99580.88
2023-01-25T06:04:37.573Z,99581.91
2023-01-25T06:08:40.171Z,99586.03
2023-01-25T06:12:42.473Z,99580.44
2023-01-25T06:16:44.640Z,99580.31
2023-01-25T06:21:05.851Z,99575.84
2023-01-25T06:25:11.935Z,99577.56
2023-01-25T06:29:14.289Z,99587.06
2023-01-25T06:33:16.395Z,99589.94
2023-01-25T06:37:18.508Z,99585.31
2023-01-25T06:41:20.910Z,99586.44
2023-01-25T06:45:22.927Z,99585.88
2023-01-25T06:49:24.919Z,99585.09
2023-01-25T06:53:28.419Z,99591.00
2023-01-25T06:57:30.428Z,99586.72
2023-01-25T07:01:33.547Z,99582.28
2023-01-25T07:05:35.572Z,99587.59
2023-01-25T07:09:37.657Z,99582.28
2023-01-25T07:13:45.682Z,99578.81
2023-01-25T07:17:47.730Z,99582.94
2023-01-25T07:21:49.816Z,99579.63
2023-01-25T07:25:51.870Z,99584.28
2023-01-25T07:29:54.173Z,99572.47
2023-01-25T07:33:57.847Z,99569.84
2023-01-25T07:37:59.904Z,99568.34
2023-01-25T07:42:02.103Z,99560.84
2023-01-25T07:46:11.295Z,99560.84
2023-01-25T07:50:13.574Z,99559.44
2023-01-25T07:54:15.584Z,99564.94
2023-01-25T07:58:17.615Z,99559.28
2023-01-25T08:02:19.640Z,99562.97
2023-01-25T08:06:30.575Z,99560.41
2023-01-25T08:10:32.880Z,99567.50
2023-01-25T08:14:34.983Z,99574.03
2023-01-25T08:18:37.188Z,99578.75
2023-01-25T08:22:39.263Z,99585.66
2023-01-25T08:26:41.515Z,99577.97
2023-01-25T08:30:56.471Z,99569.63
2023-01-25T08:34:59.158Z,99570.72
2023-01-25T08:39:06.549Z,99563.06
2023-01-25T08:43:08.569Z,99551.84
2023-01-25T08:47:10.598Z,99555.97
2023-01-25T08:51:14.308Z,99547.03
2023-01-25T08:55:16.302Z,99558.09
2023-01-25T08:59:18.327Z,99547.38
2023-01-25T09:03:20.465Z,99552.44
2023-01-25T09:07:22.506Z,99543.28
2023-01-25T09:11:24.554Z,99535.72
2023-01-25T09:15:26.707Z,99543.31
2023-01-25T09:19:28.843Z,99535.63
2023-01-25T09:23:31.736Z,99535.13
2023-01-25T09:27:35.488Z,99524.91
2023-01-25T09:31:43.688Z,99523.47
2023-01-25T09:35:49.571Z,99518.34
2023-01-25T09:39:51.617Z,99520.78
2023-01-25T09:44:15.030Z,99527.44
2023-01-25T09:48:36.221Z,99537.56
2023-01-25T09:53:13.525Z,99516.88
2023-01-25T09:57:21.605Z,99523.88
2023-01-25T10:01:37.976Z,99513.78
2023-01-25T10:05:47.440Z,99506.47
2023-01-25T10:09:53.396Z,99501.38
2023-01-25T10:13:56.938Z,99496.44
2023-01-25T10:18:07.109Z,99488.84
2023-01-25T10:22:23.396Z,99488.47
2023-01-25T10:26:27.978Z,99490.38
2023-01-25T10:30:35.746Z,99482.06
2023-01-25T10:34:55.826Z,99478.28
2023-01-25T10:39:00.994Z,99464.81
2023-01-25T10:43:11.488Z,99451.19
2023-01-25T10:47:37.203Z,99456.69
2023-01-25T10:51:39.256Z,99455.19
2023-01-25T10:55:57.648Z,99446.38
2023-01-25T11:00:05.298Z,99445.66
2023-01-25T11:04:22.592Z,99435.50
2023-01-25T11:08:39.343Z,99431.25
2023-01-25T11:12:41.377Z,99429.75
2023-01-25T11:16:47.504Z,99430.50
2023-01-25T11:21:23.179Z,99423.25
2023-01-25T11:25:31.770Z,99419.50
2023-01-25T11:29:34.137Z,99411.00
2023-01-25T11:33:36.145Z,99400.56
2023-01-25T11:37:56.518Z,99399.69
2023-01-25T11:42:23.553Z,99380.25
2023-01-25T11:46:38.450Z,99368.22
2023-01-25T11:50:49.917Z,99350.06
2023-01-25T11:55:16.787Z,99351.06
2023-01-25T12:00:00.279Z,99346.91
2023-01-25T12:04:20.855Z,99337.56
2023-01-25T12:08:46.157Z,99329.63
2023-01-25T12:13:00.270Z,99320.84
2023-01-25T12:17:16.632Z,99315.47
2023-01-25T12:21:46.352Z,99309.09
2023-01-25T12:26:12.336Z,99303.19
2023-01-25T12:30:27.128Z,99295.44
2023-01-25T12:34:38.596Z,99288.63
2023-01-25T12:38:56.782Z,99279.38
2023-01-25T12:43:01.480Z,99276.88
2023-01-25T12:47:10.425Z,99265.84
2023-01-25T12:51:13.850Z,99259.00
2023-01-25T12:55:17.575Z,99258.13
2023-01-25T12:59:42.273Z,99259.75
2023-01-25T13:04:00.919Z,99238.84
2023-01-25T13:08:31.076Z,99226.91
2023-01-25T13:12:58.714Z,99212.16
2023-01-25T13:17:21.340Z,99201.84
2023-01-25T13:21:45.347Z,99200.06
2023-01-25T13:25:47.405Z,99194.97
2023-01-25T13:30:21.437Z,99193.34
2023-01-25T13:34:35.707Z,99180.41
2023-01-25T13:38:37.833Z,99174.44
2023-01-25T13:42:40.019Z,99164.97
2023-01-25T13:46:42.061Z,99170.09
2023-01-25T13:50:49.328Z,99162.19
2023-01-25T13:54:55.319Z,99152.63
2023-01-25T13:58:57.874Z,99148.28
2023-01-25T14:03:00.894Z,99141.44
2023-01-25T14:07:09.828Z,99134.59
2023-01-25T14:11:19.179Z,99128.63
2023-01-25T14:15:30.454Z,99124.22
2023-01-25T14:19:36.074Z,99120.00
2023-01-25T14:23:38.679Z,99118.31
2023-01-25T14:27:54.742Z,99120.03
2023-01-25T14:31:56.767Z,99108.75
2023-01-25T14:36:29.433Z,99091.38
2023-01-25T14:40:31.846Z,99090.47
2023-01-25T14:44:34.114Z,99083.56
2023-01-25T14:48:42.452Z,99074.09
2023-01-25T14:52:44.559Z,99078.44
2023-01-25T14:56:49.624Z,99063.75
2023-01-25T15:00:53.152Z,99067.22
2023-01-25T15:05:15.107Z,99061.31
2023-01-25T15:09:36.452Z,99050.13
2023-01-25T15:13:38.559Z,99050.19
2023-01-25T15:17:40.627Z,99050.91
2023-01-25T15:21:42.819Z,99045.47
2023-01-25T15:25:53.018Z,99042.88
2023-01-25T15:29:55.065Z,99045.50
2023-01-25T15:33:58.486Z,99035.19
2023-01-25T15:38:00.488Z,99037.00
2023-01-25T15:42:02.604Z,99043.06
2023-01-25T15:46:06.059Z,99030.94
2023-01-25T15:50:18.074Z,99033.38
2023-01-25T15:54:20.203Z,99037.50
2023-01-25T15:58:32.966Z,99033.91
2023-01-25T16:02:35.031Z,99030.47
2023-01-25T16:06:44.321Z,99036.56
2023-01-25T16:10:47.080Z,99037.44
2023-01-25T16:14:49.166Z,99034.03
2023-01-25T16:18:51.254Z,99037.41
2023-01-25T16:22:53.254Z,99027.00
2023-01-25T16:26:57.841Z,99020.94
2023-01-25T16:31:00.120Z,99025.25
2023-01-25T16:35:02.283Z,99023.47
2023-01-25T16:39:15.603Z,99030.34
2023-01-25T16:43:18.631Z,99023.50
2023-01-25T16:47:20.884Z,99021.84
2023-01-25T16:51:28.301Z,99027.88
2023-01-25T16:55:30.707Z,99016.66
2023-01-25T16:59:32.826Z,99013.13
2023-01-25T17:03:34.834Z,99004.47
2023-01-25T17:07:37.275Z,98999.41
2023-01-25T17:11:39.888Z,99006.34
2023-01-25T17:15:42.191Z,98991.72
2023-01-25T17:19:44.288Z,98985.72
2023-01-25T17:23:46.947Z,98992.63
2023-01-25T17:27:49.099Z,98999.53
2023-01-25T17:31:51.180Z,99002.00
2023-01-25T17:35:58.235Z,98989.88
2023-01-25T17:40:00.243Z,98976.81
2023-01-25T17:44:02.875Z,98965.56
2023-01-25T17:48:09.037Z,98971.50
2023-01-25T17:52:11.400Z,98972.34
2023-01-25T17:56:14.318Z,98975.06
2023-01-25T18:00:16.770Z,98959.72
2023-01-25T18:04:20.331Z,98955.41
2023-01-25T18:08:22.322Z,98945.16
2023-01-25T18:12:24.354Z,98946.84
2023-01-25T18:16:28.781Z,98945.88
2023-01-25T18:20:31.613Z,98939.06
2023-01-25T18:24:35.261Z,98937.19
2023-01-25T18:28:38.431Z,98926.72
2023-01-25T18:32:40.599Z,98927.56
2023-01-25T18:36:42.694Z,98916.38
2023-01-25T18:40:44.798Z,98905.22
2023-01-25T18:44:48.572Z,98904.41
2023-01-25T18:48:51.188Z,98902.78
2023-01-25T18:52:54.201Z,98901.84
2023-01-25T18:56:56.227Z,98904.13
2023-01-25T19:01:19.802Z,98899.78
2023-01-25T19:05:22.083Z,98897.00
2023-01-25T19:09:25.395Z,98887.63
2023-01-25T19:13:28.021Z,98868.09
2023-01-25T19:17:31.960Z,98873.38
2023-01-25T19:21:34.209Z,98877.47
2023-01-25T19:25:36.234Z,98866.06
2023-01-25T19:29:38.285Z,98858.91
2023-01-25T19:33:40.668Z,98870.06
2023-01-25T19:37:42.716Z,98865.84
2023-01-25T19:41:45.322Z,98856.09
2023-01-25T19:45:47.479Z,98852.63
2023-01-25T19:49:49.591Z,98841.63
2023-01-25T19:54:03.889Z,98841.91
2023-01-25T19:58:08.658Z,98826.56
2023-01-25T20:02:12.249Z,98821.50
2023-01-25T20:06:15.740Z,98825.75
2023-01-25T20:10:17.850Z,98812.91
2023-01-25T20:14:19.916Z,98812.09
2023-01-25T20:18:22.628Z,98821.56
2023-01-25T20:22:24.645Z,98825.88
2023-01-25T20:26:32.720Z,98827.53
2023-01-25T20:30:34.740Z,98833.44
2023-01-25T20:34:37.004Z,98832.53
2023-01-25T20:38:39.240Z,98832.47
2023-01-25T20:42:41.264Z,98827.25
2023-01-25T20:46:44.006Z,98821.22
2023-01-25T20:50:46.048Z,98803.16
2023-01-25T20:54:49.114Z,98802.38
2023-01-25T20:58:51.723Z,98804.13
2023-01-25T21:02:53.837Z,98810.09
2023-01-25T21:06:55.860Z,98802.19
2023-01-25T21:10:59.184Z,98791.75
2023-01-25T21:15:01.205Z,98783.34
2023-01-25T21:19:06.589Z,98778.28
2023-01-25T21:23:08.629Z,98780.88
2023-01-25T21:27:10.654Z,98780.69
2023-01-25T21:31:15.956Z,98782.28
2023-01-25T21:35:17.971Z,98772.91
2023-01-25T21:39:19.989Z,98753.84
2023-01-25T21:43:22.005Z,98757.16
2023-01-25T21:47:30.540Z,98750.41
2023-01-25T21:51:35.962Z,98741.13
2023-01-25T21:55:38.134Z,98736.91
2023-01-25T21:59:40.843Z,98724.06
2023-01-25T22:03:47.112Z,98717.28
2023-01-25T22:07:49.125Z,98718.13
2023-01-25T22:11:52.987Z,98708.66
2023-01-25T22:15:58.782Z,98709.53
2023-01-25T22:20:00.825Z,98711.22
2023-01-25T22:24:04.840Z,98707.88
2023-01-25T22:28:14.209Z,98710.41
2023-01-25T22:32:16.225Z,98712.84
2023-01-25T22:36:20.644Z,98717.97
2023-01-25T22:40:22.743Z,98700.81
2023-01-25T22:44:24.811Z,98694.81
2023-01-25T22:48:27.341Z,98682.91
2023-01-25T22:52:29.411Z,98690.66
2023-01-25T22:56:32.848Z,98684.59
2023-01-25T23:00:35.174Z,98675.16
2023-01-25T23:04:37.468Z,98674.31
2023-01-25T23:08:40.419Z,98665.72
2023-01-25T23:12:42.434Z,98656.28
2023-01-25T23:16:44.511Z,98654.63
2023-01-25T23:20:46.500Z,98647.75
2023-01-25T23:24:48.532Z,98637.31
2023-01-25T23:28:53.135Z,98644.91
2023-01-25T23:32:55.187Z,98626.03
2023-01-25T23:36:57.207Z,98635.56
2023-01-25T23:41:00.927Z,98637.25
2023-01-25T23:45:03.038Z,98631.16
2023-01-25T23:49:05.185Z,98619.16
2023-01-25T23:53:07.228Z,98606.34
2023-01-25T23:57:09.265Z,98606.22
